Gillette, WY

6:02 PM MDT on August 22, 2014 (GMT -0600)
Gillette-Campbell County | Change Station
CLOSE
Current Station
Airport
Location: Gillette,
Elevation: 4364 ft
Nearby Weather Stations
Active Advisory: Severe Thunderstorm Warning

Elev 4364 ft 44.34 °N, 105.54 °W | Updated 9 minutes ago

Mostly Cloudy
Mostly Cloudy
62 °F
Feels Like 62 °F
N
25
Wind Variable Wind from North
Gusts 34 mph

Today
High -- | Low -- °F
--% Chance of Precip.
Yesterday
High -- | Low -- °F
Precip. -- in
6:13 AM 7:56 PM
Waning Crescent, 6% visible
Pressure 29.87 in
Visibility 10.0 miles
Clouds Few 2900 ft
Mostly Cloudy 8000 ft
Mostly Cloudy 10000 ft
Dew Point 54 °F
Humidity 75%
Rainfall 0.00 in
Snow Depth Not available.
UV 1 out of 12
Pollen 6.70 out of 12
Air Quality Not available.
Flu Activity Not available.
METAR KGCC 222353Z AUTO 36022G30KT 10SM VCTS FEW029 BKN080 BKN100 17/12 A2996 RMK AO2 PK WND 34033/2327 WSHFT 2316 LTG DSNT ALQDS SLP114 T01670122 10272 20161 55014

More Conditions Fewer Conditions

Pressure 29.87 in
Visibility 10.0 miles
Clouds Few 2900 ft
Mostly Cloudy 8000 ft
Mostly Cloudy 10000 ft
Dew Point 54 °F
Humidity 75%
Rainfall 0.00 in
Snow Depth Not available.
UV 1 out of 12
Pollen 6.70 out of 12
Air Quality Not available.
Flu Activity Not available.
METAR KGCC 222353Z AUTO 36022G30KT 10SM VCTS FEW029 BKN080 BKN100 17/12 A2996 RMK AO2 PK WND 34033/2327 WSHFT 2316 LTG DSNT ALQDS SLP114 T01670122 10272 20161 55014

More Conditions Fewer Conditions

10-Day Weather Forecast

Almanac

Astronomy

Aug. 22, 2014 Rise Set
Actual Time 6:13 AM MDT 7:56 PM MDT
Civil Twilight 5:42 AM MDT 8:27 PM MDT
Nautical Twilight 5:04 AM MDT 9:04 PM MDT
Astronomical Twilight 4:24 AM MDT 9:45 PM MDT
Moon 3:35 AM MDT (8/22) 6:08 PM MDT (8/22)
Length of Visible Light 14h 44m
Length of Day
13h 43m
Tomorrow will be 2m 53s shorter.
Waning Crescent, 6% of the Moon is Illuminated
Today
Waning Crescent
Aug 25
New
Sep 2
First Quarter
Sep 8
Full
Sep 15
Last Quarter

Today's Extremes

State Highs State Lows

Community

WunderPhotos

Upload Photos

1,746,314 photos uploaded!

WunderBlogs® & News

By Dr. Jeff Masters
Director of Meteorology, Weather Underground
By Kari Strenfel
Meteorologist, Weather Underground
By Christopher C. Burt
Weather Historian, Weather Underground
August 22, 2014
August 22, 2014
August 22, 2014

Nearby

Snow Depth

Station Depth Elevation
Casper Mountain 0 in 7850 ft
Crow Creek 0 in 8330 ft
Cinnabar Park 0 in 9690 ft
Kendall R.S. 1 in 7740 ft
New Fork Lake 0 in 8340 ft

Earthquake Activity

City Distance Mag. Time & Date
No recent earthquake activity has been reported nearby.
Minimum magnitude displayed is 2.5.

Coastal Water Temperatures

Place Temperature
No Stations Reporting

Nearby Weather Stations